Bara Mann — FVGI — position and weather

sailwx.info

Track history (hours):
 
Tides and Currents Weather Stations Pressure Air Temp Water Temp Dewpoint Dewpoint Depression Visibility Wind Speed Wind Dir Waves Ship Positions

Bara Mann

Last reported at 2017-Nov-16 17:10 UTC. Time now 2017-Nov-22 16:40 UTC.
Position N 47°47' W 004°17'.

Length 24 m.

Type: Fishing. MMSI: 227375000.

Date/timePositionNaut miles runAvg speedWind from/ knotsBaromVisibWave heightAir tempDewpointWater temp
2017-Nov-16 17:10N 47°47' W 004°17'2 9.3
2017-Nov-16 16:56N 47°46' W 004°20'4 9.8
2017-Nov-16 16:30N 47°45' W 004°26'5 9.6
2017-Nov-16 15:58N 47°44' W 004°33'510.0
2017-Nov-16 15:29N 47°43' W 004°41'510.0
2017-Nov-16 15:01N 47°42' W 004°47'5 9.4
2017-Nov-16 14:29N 47°40' W 004°55'2 4.4
2017-Nov-16 14:00N 47°39' W 004°57'2 3.0
2017-Nov-16 13:25N 47°39' W 004°60'2 3.0
2017-Nov-16 12:47N 47°38' W 005°02'1 2.9
2017-Nov-16 12:28N 47°38' W 005°04'2 3.0
2017-Nov-16 11:41N 47°37' W 005°07'1 3.0
2017-Nov-16 11:18N 47°36' W 005°09'1 3.2
2017-Nov-16 10:53N 47°35' W 005°10'2 1.7
2017-Nov-16 09:57N 47°36' W 005°12'2 3.0
2017-Nov-16 09:27N 47°37' W 005°12'2 2.9
2017-Nov-16 08:50N 47°38' W 005°09'1 2.6
2017-Nov-16 08:20N 47°36' W 005°09'1 2.7
2017-Nov-16 08:00N 47°36' W 005°10'1 2.6
2017-Nov-16 07:31N 47°35' W 005°11'1 2.0
2017-Nov-16 06:53N 47°35' W 005°13'1 2.9
2017-Nov-16 06:29N 47°36' W 005°13'2 3.0
2017-Nov-16 05:58N 47°37' W 005°13'3 3.2
2017-Nov-16 05:07N 47°40' W 005°14'2 3.1
2017-Nov-16 04:26N 47°42' W 005°15'2 3.1
2017-Nov-16 03:52N 47°44' W 005°15'4 5.0
2017-Nov-16 03:10N 47°47' W 005°14'0 0.5
2017-Nov-16 02:56N 47°47' W 005°14'2 1.5
2017-Nov-16 01:34N 47°45' W 005°12'1 2.8
2017-Nov-16 01:23N 47°45' W 005°13'2 2.7
2017-Nov-16 00:46N 47°45' W 005°16'2 2.5
2017-Nov-15 23:53N 47°46' W 005°19'1 1.8
2017-Nov-15 23:25N 47°46' W 005°18'1 2.3
2017-Nov-15 22:52N 47°47' W 005°17'1 2.5
2017-Nov-15 22:26N 47°47' W 005°15'1 2.2
2017-Nov-15 21:58N 47°47' W 005°13'1 2.5
2017-Nov-15 21:30N 47°47' W 005°12'1 2.3
2017-Nov-15 20:55N 47°45' W 005°12'2 3.6
2017-Nov-15 20:26N 47°45' W 005°15'1 1.6
2017-Nov-15 19:53N 47°45' W 005°16'1 1.5
2017-Nov-15 19:27N 47°46' W 005°15'1 0.9
2017-Nov-15 18:54N 47°46' W 005°15'4 3.0
2017-Nov-15 17:42N 47°47' W 005°10'0 1.3
2017-Nov-15 17:28N 47°47' W 005°10'1 2.8
2017-Nov-15 16:59N 47°48' W 005°08'1 2.5
2017-Nov-15 16:30N 47°48' W 005°10'1 2.6
2017-Nov-15 16:01N 47°48' W 005°12'1 2.6
2017-Nov-15 15:27N 47°47' W 005°14'2 2.9
2017-Nov-15 14:51N 47°47' W 005°16'4 2.6
2017-Nov-15 13:30N 47°48' W 005°21'1 2.2
2017-Nov-15 12:55N 47°49' W 005°22'3 2.6
2017-Nov-15 11:56N 47°50' W 005°26'2 1.9
2017-Nov-15 10:42N 47°48' W 005°25'1 2.5
2017-Nov-15 10:24N 47°48' W 005°23'3 2.7
2017-Nov-15 09:24N 47°47' W 005°20'1 3.1
2017-Nov-15 08:55N 47°46' W 005°18'1 1.0
2017-Nov-15 07:46N 47°46' W 005°16'4 2.4
2017-Nov-15 06:05N 47°47' W 005°22'0 2.9
2017-Nov-15 05:57N 47°48' W 005°22'5 3.0
2017-Nov-15 04:10N 47°51' W 005°28'2 4.6
2017-Nov-15 03:44N 47°53' W 005°30'2 2.6
2017-Nov-15 02:53N 47°55' W 005°31'2 1.8
2017-Nov-15 02:02N 47°54' W 005°33'1 2.6
2017-Nov-15 01:32N 47°53' W 005°31'6 2.1
2017-Nov-14 22:56N 47°49' W 005°26'3 2.3
2017-Nov-14 21:46N 47°48' W 005°22'5 2.3
2017-Nov-14 19:43N 47°46' W 005°16'1 2.6
2017-Nov-14 19:21N 47°46' W 005°18'4 2.9
2017-Nov-14 17:48N 47°49' W 005°22'1 2.4
2017-Nov-14 17:26N 47°49' W 005°24'2 2.6
2017-Nov-14 16:39N 47°49' W 005°27'1 2.7
2017-Nov-14 16:23N 47°49' W 005°28'1 2.6
2017-Nov-14 15:57N 47°50' W 005°29'4 1.7
2017-Nov-14 13:49N 47°49' W 005°24'2 3.1
2017-Nov-14 13:13N 47°48' W 005°21'1 1.9
2017-Nov-14 12:55N 47°49' W 005°22'5 2.1
2017-Nov-14 10:32N 47°50' W 005°29'7 2.3
2017-Nov-14 07:35N 47°48' W 005°20'1 2.1
2017-Nov-14 07:06N 47°47' W 005°18'2 2.5
2017-Nov-14 06:16N 47°46' W 005°16'1 2.1
2017-Nov-14 05:57N 47°46' W 005°17'2 2.8
2017-Nov-14 05:21N 47°46' W 005°19'1 2.8
2017-Nov-14 04:56N 47°47' W 005°20'1 2.9
2017-Nov-14 04:25N 47°48' W 005°22'1 2.7
2017-Nov-14 03:55N 47°48' W 005°24'1 2.6
2017-Nov-14 03:24N 47°49' W 005°26'2 1.4
2017-Nov-14 02:02N 47°49' W 005°23'1 2.8
2017-Nov-14 01:45N 47°49' W 005°24'1 3.0
2017-Nov-14 01:19N 47°49' W 005°26'1 2.4
2017-Nov-14 00:57N 47°50' W 005°27'1 2.7
2017-Nov-14 00:24N 47°51' W 005°28'11 0.5
2017-Nov-13 00:54N 47°44' W 005°15'1 2.8
2017-Nov-13 00:24N 47°46' W 005°15'1 2.2
2017-Nov-12 23:59N 47°47' W 005°16'11 1.1
2017-Nov-12 14:32N 47°37' W 005°09'8 2.7
2017-Nov-12 11:39N 47°43' W 005°15'1 2.9
2017-Nov-12 11:27N 47°44' W 005°15'2 3.2
2017-Nov-12 10:58N 47°45' W 005°16'4 1.9
2017-Nov-12 08:46N 47°41' W 005°16'4 0.6
2017-Nov-12 01:16N 47°45' W 005°16'1 0.4
2017-Nov-11 23:35N 47°45' W 005°15'2 2.0
2017-Nov-11 22:30N 47°46' W 005°12'1 2.2
2017-Nov-11 21:54N 47°47' W 005°12'1 2.7
2017-Nov-11 21:30N 47°47' W 005°14'2 2.8
2017-Nov-11 20:46N 47°47' W 005°17'3 2.4
2017-Nov-11 19:30N 47°43' W 005°16'10 1.6
2017-Nov-11 13:18N 47°33' W 005°14'1 2.3
2017-Nov-11 12:56N 47°33' W 005°15'2 2.4
2017-Nov-11 12:17N 47°33' W 005°18'1 2.6
2017-Nov-11 11:51N 47°33' W 005°19'7 0.6
2017-Nov-10 23:51N 47°39' W 005°14'2 2.1
2017-Nov-10 23:01N 47°41' W 005°14'1 3.1
2017-Nov-10 22:33N 47°42' W 005°15'0 3.0
2017-Nov-10 22:23N 47°43' W 005°15'2 2.9
2017-Nov-10 21:43N 47°45' W 005°15'1 2.1
2017-Nov-10 21:07N 47°45' W 005°14'1 2.2
2017-Nov-10 20:32N 47°46' W 005°12'0 2.5
2017-Nov-10 20:27N 47°46' W 005°12'1 2.4
2017-Nov-10 20:00N 47°47' W 005°12'1 2.9
2017-Nov-10 19:31N 47°47' W 005°14'0 0.3
2017-Nov-10 18:57N 47°47' W 005°14'1 2.7
2017-Nov-10 18:27N 47°47' W 005°16'7 2.5
2017-Nov-10 15:40N 47°40' W 005°17'2 2.5
2017-Nov-10 14:53N 47°38' W 005°17'6 2.6
2017-Nov-10 12:45N 47°43' W 005°16'1 3.0
2017-Nov-10 12:23N 47°44' W 005°16'1 3.0
2017-Nov-10 11:56N 47°46' W 005°16'1 2.3
2017-Nov-10 11:25N 47°46' W 005°17'1 2.6
2017-Nov-10 10:55N 47°47' W 005°19'2 3.3
2017-Nov-10 10:16N 47°48' W 005°21'0 1.7
2017-Nov-10 10:00N 47°49' W 005°22'4 2.9
2017-Nov-10 08:34N 47°51' W 005°27'0 2.8
2017-Nov-10 08:29N 47°51' W 005°27'11 4.1
2017-Nov-10 05:51N 47°59' W 005°38'8 8.5
2017-Nov-10 04:58N 48°05' W 005°44'  
Track history (hours):
 
Tides and Currents Weather Stations Pressure Air Temp Water Temp Dewpoint Dewpoint Depression Visibility Wind Speed Wind Dir Waves Ship Positions

Bara Mann

Last reported at 2017-Nov-16 17:10 UTC. Time now 2017-Nov-22 16:40 UTC.
Position N 47°47' W 004°17'.

Length 24 m.

Type: Fishing. MMSI: 227375000.

Date/timePositionNaut miles runAvg speedWind from/ knotsBaromVisibWave heightAir tempDewpointWater temp
2017-Nov-16 17:10N 47°47' W 004°17'2 9.3
2017-Nov-16 16:56N 47°46' W 004°20'4 9.8
2017-Nov-16 16:30N 47°45' W 004°26'5 9.6
2017-Nov-16 15:58N 47°44' W 004°33'510.0
2017-Nov-16 15:29N 47°43' W 004°41'510.0
2017-Nov-16 15:01N 47°42' W 004°47'5 9.4
2017-Nov-16 14:29N 47°40' W 004°55'2 4.4
2017-Nov-16 14:00N 47°39' W 004°57'2 3.0
2017-Nov-16 13:25N 47°39' W 004°60'2 3.0
2017-Nov-16 12:47N 47°38' W 005°02'1 2.9
2017-Nov-16 12:28N 47°38' W 005°04'2 3.0
2017-Nov-16 11:41N 47°37' W 005°07'1 3.0
2017-Nov-16 11:18N 47°36' W 005°09'1 3.2
2017-Nov-16 10:53N 47°35' W 005°10'2 1.7
2017-Nov-16 09:57N 47°36' W 005°12'2 3.0
2017-Nov-16 09:27N 47°37' W 005°12'2 2.9
2017-Nov-16 08:50N 47°38' W 005°09'1 2.6
2017-Nov-16 08:20N 47°36' W 005°09'1 2.7
2017-Nov-16 08:00N 47°36' W 005°10'1 2.6
2017-Nov-16 07:31N 47°35' W 005°11'1 2.0
2017-Nov-16 06:53N 47°35' W 005°13'1 2.9
2017-Nov-16 06:29N 47°36' W 005°13'2 3.0
2017-Nov-16 05:58N 47°37' W 005°13'3 3.2
2017-Nov-16 05:07N 47°40' W 005°14'2 3.1
2017-Nov-16 04:26N 47°42' W 005°15'2 3.1
2017-Nov-16 03:52N 47°44' W 005°15'4 5.0
2017-Nov-16 03:10N 47°47' W 005°14'0 0.5
2017-Nov-16 02:56N 47°47' W 005°14'2 1.5
2017-Nov-16 01:34N 47°45' W 005°12'1 2.8
2017-Nov-16 01:23N 47°45' W 005°13'2 2.7
2017-Nov-16 00:46N 47°45' W 005°16'2 2.5
2017-Nov-15 23:53N 47°46' W 005°19'1 1.8
2017-Nov-15 23:25N 47°46' W 005°18'1 2.3
2017-Nov-15 22:52N 47°47' W 005°17'1 2.5
2017-Nov-15 22:26N 47°47' W 005°15'1 2.2
2017-Nov-15 21:58N 47°47' W 005°13'1 2.5
2017-Nov-15 21:30N 47°47' W 005°12'1 2.3
2017-Nov-15 20:55N 47°45' W 005°12'2 3.6
2017-Nov-15 20:26N 47°45' W 005°15'1 1.6
2017-Nov-15 19:53N 47°45' W 005°16'1 1.5
2017-Nov-15 19:27N 47°46' W 005°15'1 0.9
2017-Nov-15 18:54N 47°46' W 005°15'4 3.0
2017-Nov-15 17:42N 47°47' W 005°10'0 1.3
2017-Nov-15 17:28N 47°47' W 005°10'1 2.8
2017-Nov-15 16:59N 47°48' W 005°08'1 2.5
2017-Nov-15 16:30N 47°48' W 005°10'1 2.6
2017-Nov-15 16:01N 47°48' W 005°12'1 2.6
2017-Nov-15 15:27N 47°47' W 005°14'2 2.9
2017-Nov-15 14:51N 47°47' W 005°16'4 2.6
2017-Nov-15 13:30N 47°48' W 005°21'1 2.2
2017-Nov-15 12:55N 47°49' W 005°22'3 2.6
2017-Nov-15 11:56N 47°50' W 005°26'2 1.9
2017-Nov-15 10:42N 47°48' W 005°25'1 2.5
2017-Nov-15 10:24N 47°48' W 005°23'3 2.7
2017-Nov-15 09:24N 47°47' W 005°20'1 3.1
2017-Nov-15 08:55N 47°46' W 005°18'1 1.0
2017-Nov-15 07:46N 47°46' W 005°16'4 2.4
2017-Nov-15 06:05N 47°47' W 005°22'0 2.9
2017-Nov-15 05:57N 47°48' W 005°22'5 3.0
2017-Nov-15 04:10N 47°51' W 005°28'2 4.6
2017-Nov-15 03:44N 47°53' W 005°30'2 2.6
2017-Nov-15 02:53N 47°55' W 005°31'2 1.8
2017-Nov-15 02:02N 47°54' W 005°33'1 2.6
2017-Nov-15 01:32N 47°53' W 005°31'6 2.1
2017-Nov-14 22:56N 47°49' W 005°26'3 2.3
2017-Nov-14 21:46N 47°48' W 005°22'5 2.3
2017-Nov-14 19:43N 47°46' W 005°16'1 2.6
2017-Nov-14 19:21N 47°46' W 005°18'4 2.9
2017-Nov-14 17:48N 47°49' W 005°22'1 2.4
2017-Nov-14 17:26N 47°49' W 005°24'2 2.6
2017-Nov-14 16:39N 47°49' W 005°27'1 2.7
2017-Nov-14 16:23N 47°49' W 005°28'1 2.6
2017-Nov-14 15:57N 47°50' W 005°29'4 1.7
2017-Nov-14 13:49N 47°49' W 005°24'2 3.1
2017-Nov-14 13:13N 47°48' W 005°21'1 1.9
2017-Nov-14 12:55N 47°49' W 005°22'5 2.1
2017-Nov-14 10:32N 47°50' W 005°29'7 2.3
2017-Nov-14 07:35N 47°48' W 005°20'1 2.1
2017-Nov-14 07:06N 47°47' W 005°18'2 2.5
2017-Nov-14 06:16N 47°46' W 005°16'1 2.1
2017-Nov-14 05:57N 47°46' W 005°17'2 2.8
2017-Nov-14 05:21N 47°46' W 005°19'1 2.8
2017-Nov-14 04:56N 47°47' W 005°20'1 2.9
2017-Nov-14 04:25N 47°48' W 005°22'1 2.7
2017-Nov-14 03:55N 47°48' W 005°24'1 2.6
2017-Nov-14 03:24N 47°49' W 005°26'2 1.4
2017-Nov-14 02:02N 47°49' W 005°23'1 2.8
2017-Nov-14 01:45N 47°49' W 005°24'1 3.0
2017-Nov-14 01:19N 47°49' W 005°26'1 2.4
2017-Nov-14 00:57N 47°50' W 005°27'1 2.7
2017-Nov-14 00:24N 47°51' W 005°28'11 0.5
2017-Nov-13 00:54N 47°44' W 005°15'1 2.8
2017-Nov-13 00:24N 47°46' W 005°15'1 2.2
2017-Nov-12 23:59N 47°47' W 005°16'11 1.1
2017-Nov-12 14:32N 47°37' W 005°09'8 2.7
2017-Nov-12 11:39N 47°43' W 005°15'1 2.9
2017-Nov-12 11:27N 47°44' W 005°15'2 3.2
2017-Nov-12 10:58N 47°45' W 005°16'4 1.9
2017-Nov-12 08:46N 47°41' W 005°16'4 0.6
2017-Nov-12 01:16N 47°45' W 005°16'1 0.4
2017-Nov-11 23:35N 47°45' W 005°15'2 2.0
2017-Nov-11 22:30N 47°46' W 005°12'1 2.2
2017-Nov-11 21:54N 47°47' W 005°12'1 2.7
2017-Nov-11 21:30N 47°47' W 005°14'2 2.8
2017-Nov-11 20:46N 47°47' W 005°17'3 2.4
2017-Nov-11 19:30N 47°43' W 005°16'10 1.6
2017-Nov-11 13:18N 47°33' W 005°14'1 2.3
2017-Nov-11 12:56N 47°33' W 005°15'2 2.4
2017-Nov-11 12:17N 47°33' W 005°18'1 2.6
2017-Nov-11 11:51N 47°33' W 005°19'7 0.6
2017-Nov-10 23:51N 47°39' W 005°14'2 2.1
2017-Nov-10 23:01N 47°41' W 005°14'1 3.1
2017-Nov-10 22:33N 47°42' W 005°15'0 3.0
2017-Nov-10 22:23N 47°43' W 005°15'2 2.9
2017-Nov-10 21:43N 47°45' W 005°15'1 2.1
2017-Nov-10 21:07N 47°45' W 005°14'1 2.2
2017-Nov-10 20:32N 47°46' W 005°12'0 2.5
2017-Nov-10 20:27N 47°46' W 005°12'1 2.4
2017-Nov-10 20:00N 47°47' W 005°12'1 2.9
2017-Nov-10 19:31N 47°47' W 005°14'0 0.3
2017-Nov-10 18:57N 47°47' W 005°14'1 2.7
2017-Nov-10 18:27N 47°47' W 005°16'7 2.5
2017-Nov-10 15:40N 47°40' W 005°17'2 2.5
2017-Nov-10 14:53N 47°38' W 005°17'6 2.6
2017-Nov-10 12:45N 47°43' W 005°16'1 3.0
2017-Nov-10 12:23N 47°44' W 005°16'1 3.0
2017-Nov-10 11:56N 47°46' W 005°16'1 2.3
2017-Nov-10 11:25N 47°46' W 005°17'1 2.6
2017-Nov-10 10:55N 47°47' W 005°19'2 3.3
2017-Nov-10 10:16N 47°48' W 005°21'0 1.7
2017-Nov-10 10:00N 47°49' W 005°22'4 2.9
2017-Nov-10 08:34N 47°51' W 005°27'0 2.8
2017-Nov-10 08:29N 47°51' W 005°27'11 4.1
2017-Nov-10 05:51N 47°59' W 005°38'8 8.5
2017-Nov-10 04:58N 48°05' W 005°44'  

Dump ship's entire track history